Back to Top

Language: 

My Weather Underground Personal Weather Station Historical Data with Graphs...

Delerius Weather Station Historical Data
Daily Summary for October 21, 2017 Units:  Metric    English   Both
« Previous Day
Next Day »
Daily Weekly Monthly Yearly Custom
  High: Low: Average:
Temperature: 13.6 °C 10.6 °C 12.1 °C
Dew Point: 11.7 °C 9.3 °C 10.3 °C
Humidity: 96 % 78 % 89 %
Wind Speed: 32.2 km/h 6.4 km/h 20 km/h
Wind Gust: 62.8 km/h - -
Wind:- - SSW
Pressure: 1000.2 hPa 989.7 hPa -
Precipitation: 5.59 mm    
Historical Graphs
 
 
Tabular Data for October 21, 2017
Time Temperature Dew Point Pressure Wind Wind Speed Wind Gust Humidity Rainfall Rate (Hourly) solar Conditions
00:04 10.6 °C 9.3 °C 1000.2 hPa SE 8 km/h 16.1 km/h 92 % 0 mm 0 W/m2
00:09 10.6 °C 9.3 °C 999.9 hPa SE 9.7 km/h 16.1 km/h 92 % 0 mm 0 W/m2
00:14 10.6 °C 9.5 °C 999.9 hPa SE 9.7 km/h 16.1 km/h 93 % 0 mm 0 W/m2
00:19 10.6 °C 9.5 °C 999.9 hPa SE 9.7 km/h 16.1 km/h 93 % 0.25 mm 0 W/m2
00:24 10.6 °C 9.5 °C 999.5 hPa SE 9.7 km/h 16.1 km/h 93 % 0.25 mm 0 W/m2
00:29 10.6 °C 9.5 °C 999.5 hPa SE 9.7 km/h 16.1 km/h 93 % 0.25 mm 0 W/m2
00:34 10.6 °C 9.7 °C 999.2 hPa SE 11.3 km/h 17.7 km/h 94 % 0.25 mm 0 W/m2
00:39 10.6 °C 9.7 °C 999.2 hPa SE 12.9 km/h 24.1 km/h 94 % 0.25 mm 0 W/m2
00:44 10.6 °C 9.7 °C 999.2 hPa SE 12.9 km/h 24.1 km/h 94 % 0.25 mm 0 W/m2
00:49 10.7 °C 9.8 °C 999.2 hPa SE 14.5 km/h 25.7 km/h 94 % 0.25 mm 0 W/m2
00:54 10.8 °C 10.1 °C 998.9 hPa SE 16.1 km/h 32.2 km/h 95 % 0.25 mm 0 W/m2
00:59 10.9 °C 10.1 °C 998.9 hPa SE 16.1 km/h 32.2 km/h 95 % 0.25 mm 0 W/m2
01:04 10.9 °C 10.1 °C 998.9 hPa SSE 14.5 km/h 24.1 km/h 95 % 0.25 mm 0 W/m2
01:09 11 °C 10.2 °C 998.5 hPa SSE 14.5 km/h 24.1 km/h 95 % 0.25 mm 0 W/m2
01:13 11 °C 10.2 °C 998.5 hPa SE 14.5 km/h 25.7 km/h 95 % 0.51 mm 0 W/m2
01:18 11.1 °C 10.3 °C 998.5 hPa SE 16.1 km/h 25.7 km/h 95 % 0.51 mm 0 W/m2
01:23 11.1 °C 10.3 °C 998.5 hPa SSE 16.1 km/h 29 km/h 95 % 0.51 mm 0 W/m2
01:28 11.1 °C 10.3 °C 998.5 hPa SSE 14.5 km/h 29 km/h 95 % 0.51 mm 0 W/m2
01:33 11.2 °C 10.4 °C 998.2 hPa SSE 14.5 km/h 24.1 km/h 95 % 0.51 mm 0 W/m2
01:38 11.2 °C 10.4 °C 998.2 hPa SSE 14.5 km/h 24.1 km/h 95 % 0.51 mm 0 W/m2
01:43 11.3 °C 10.6 °C 998.2 hPa SSE 14.5 km/h 24.1 km/h 95 % 0.51 mm 0 W/m2
01:48 11.3 °C 10.6 °C 998.2 hPa SSE 12.9 km/h 25.7 km/h 95 % 0.51 mm 0 W/m2
01:53 11.3 °C 10.6 °C 998.2 hPa SSE 12.9 km/h 25.7 km/h 95 % 0.51 mm 0 W/m2
01:58 11.4 °C 10.6 °C 997.9 hPa SSE 12.9 km/h 22.5 km/h 95 % 0.51 mm 0 W/m2
02:03 11.4 °C 10.6 °C 997.9 hPa SSE 12.9 km/h 20.9 km/h 95 % 0.51 mm 0 W/m2
02:08 11.4 °C 10.6 °C 997.9 hPa SSE 12.9 km/h 20.9 km/h 95 % 0.51 mm 0 W/m2
02:13 11.5 °C 10.7 °C 997.9 hPa South 11.3 km/h 20.9 km/h 95 % 0.51 mm 0 W/m2
02:18 11.5 °C 10.7 °C 997.9 hPa SSE 11.3 km/h 20.9 km/h 95 % 0.25 mm 0 W/m2
02:23 11.6 °C 10.8 °C 997.5 hPa SSE 12.9 km/h 20.9 km/h 95 % 0 mm 0 W/m2
02:28 11.6 °C 10.8 °C 997.5 hPa SSE 11.3 km/h 17.7 km/h 95 % 0 mm 0 W/m2
02:33 11.6 °C 11 °C 997.5 hPa SSE 11.3 km/h 22.5 km/h 96 % 0 mm 0 W/m2
02:38 11.7 °C 11.1 °C 997.5 hPa SSE 11.3 km/h 22.5 km/h 96 % 0 mm 0 W/m2
02:43 11.7 °C 11.1 °C 997.5 hPa South 11.3 km/h 22.5 km/h 96 % 0 mm 0 W/m2
02:49 11.7 °C 11.1 °C 997.2 hPa SSE 11.3 km/h 22.5 km/h 96 % 0 mm 0 W/m2
02:54 11.8 °C 11.2 °C 997.2 hPa SSE 11.3 km/h 19.3 km/h 96 % 0 mm 0 W/m2
02:59 11.8 °C 11.2 °C 997.2 hPa SSE 11.3 km/h 19.3 km/h 96 % 0 mm 0 W/m2
03:04 11.8 °C 11.2 °C 997.2 hPa SSE 9.7 km/h 17.7 km/h 96 % 0 mm 0 W/m2
03:09 11.9 °C 11.3 °C 997.2 hPa SSE 9.7 km/h 17.7 km/h 96 % 0 mm 0 W/m2
03:14 11.9 °C 11.3 °C 996.8 hPa SSE 9.7 km/h 17.7 km/h 96 % 0 mm 0 W/m2
03:19 12 °C 11.4 °C 996.8 hPa SSE 8 km/h 14.5 km/h 96 % 0 mm 0 W/m2
03:24 12 °C 11.4 °C 996.8 hPa SSE 9.7 km/h 16.1 km/h 96 % 0 mm 0 W/m2
03:29 12.1 °C 11.5 °C 996.8 hPa SSE 8 km/h 16.1 km/h 96 % 0 mm 0 W/m2
03:34 12.1 °C 11.5 °C 996.8 hPa SSE 6.4 km/h 14.5 km/h 96 % 0 mm 0 W/m2
03:39 12.1 °C 11.5 °C 996.8 hPa SSE 8 km/h 12.9 km/h 96 % 0 mm 0 W/m2
03:44 12.1 °C 11.5 °C 996.5 hPa SSE 6.4 km/h 12.9 km/h 96 % 0 mm 0 W/m2
03:49 12.1 °C 11.5 °C 996.5 hPa SSE 8 km/h 20.9 km/h 96 % 0 mm 0 W/m2
03:54 12.1 °C 11.5 °C 996.5 hPa SE 11.3 km/h 22.5 km/h 96 % 0 mm 0 W/m2
03:59 12.1 °C 11.5 °C 996.2 hPa SSE 12.9 km/h 22.5 km/h 96 % 0 mm 0 W/m2
04:00 12.2 °C 11.6 °C 996.2 hPa SSE 12.9 km/h 22.5 km/h 96 % 0 mm 0 W/m2
04:05 12.2 °C 11.6 °C 996.5 hPa SSE 12.9 km/h 22.5 km/h 96 % 0 mm 0 W/m2
04:10 12.2 °C 11.6 °C 996.5 hPa South 12.9 km/h 22.5 km/h 96 % 0 mm 0 W/m2
04:15 12.2 °C 11.6 °C 996.2 hPa South 11.3 km/h 20.9 km/h 96 % 0 mm 0 W/m2
04:20 12.2 °C 11.6 °C 996.2 hPa South 9.7 km/h 20.9 km/h 96 % 0 mm 0 W/m2
04:21 12.3 °C 11.7 °C 996.2 hPa South 11.3 km/h 20.9 km/h 96 % 0 mm 0 W/m2
04:25 12.3 °C 11.7 °C 996.2 hPa South 11.3 km/h 20.9 km/h 96 % 0 mm 0 W/m2
04:26 12.3 °C 11.7 °C 996.2 hPa South 11.3 km/h 20.9 km/h 96 % 0 mm 0 W/m2
04:27 12.3 °C 11.7 °C 996.2 hPa South 11.3 km/h 20.9 km/h 96 % 0 mm 0 W/m2
04:32 12.3 °C 11.7 °C 996.2 hPa South 11.3 km/h 19.3 km/h 96 % 0 mm 0 W/m2
04:37 12.4 °C 11.6 °C 996.2 hPa South 12.9 km/h 22.5 km/h 95 % 0 mm 0 W/m2
04:42 12.4 °C 11.6 °C 995.8 hPa SSE 12.9 km/h 22.5 km/h 95 % 0 mm 0 W/m2
04:43 12.4 °C 11.6 °C 995.8 hPa SSE 12.9 km/h 22.5 km/h 95 % 0 mm 0 W/m2
04:53 12.4 °C 11.6 °C 995.8 hPa South 12.9 km/h 24.1 km/h 95 % 0 mm 0 W/m2
04:58 12.4 °C 11.6 °C 995.8 hPa SSE 12.9 km/h 24.1 km/h 95 % 0 mm 0 W/m2
05:03 12.5 °C 11.6 °C 995.8 hPa SSE 14.5 km/h 24.1 km/h 94 % 0 mm 0 W/m2
05:08 12.5 °C 11.6 °C 995.8 hPa South 14.5 km/h 30.6 km/h 94 % 0 mm 0 W/m2
05:13 12.6 °C 11.7 °C 995.8 hPa South 16.1 km/h 30.6 km/h 94 % 0 mm 0 W/m2
05:18 12.6 °C 11.7 °C 995.8 hPa South 14.5 km/h 29 km/h 94 % 0 mm 0 W/m2
05:23 12.6 °C 11.7 °C 995.8 hPa South 14.5 km/h 22.5 km/h 94 % 0 mm 0 W/m2
05:28 12.6 °C 11.5 °C 995.5 hPa South 14.5 km/h 32.2 km/h 93 % 0 mm 0 W/m2
05:33 12.7 °C 11.6 °C 995.5 hPa South 16.1 km/h 38.6 km/h 93 % 0 mm 0 W/m2
05:38 12.7 °C 11.4 °C 995.5 hPa South 17.7 km/h 38.6 km/h 92 % 0 mm 0 W/m2
05:43 12.8 °C 11.6 °C 995.1 hPa South 16.1 km/h 30.6 km/h 92 % 0 mm 0 W/m2
05:48 12.8 °C 11.4 °C 995.1 hPa South 14.5 km/h 25.7 km/h 91 % 0 mm 0 W/m2
05:53 12.8 °C 11.4 °C 995.1 hPa South 14.5 km/h 25.7 km/h 91 % 0 mm 0 W/m2
05:58 12.7 °C 11.3 °C 995.1 hPa South 14.5 km/h 25.7 km/h 91 % 0 mm 0 W/m2
06:03 12.7 °C 11.1 °C 995.1 hPa South 14.5 km/h 29 km/h 90 % 0 mm 0 W/m2
06:08 12.7 °C 11.1 °C 995.1 hPa South 14.5 km/h 30.6 km/h 90 % 0 mm 0 W/m2
06:13 12.6 °C 11 °C 995.1 hPa South 16.1 km/h 30.6 km/h 90 % 0 mm 0 W/m2
06:18 12.6 °C 10.8 °C 995.5 hPa South 19.3 km/h 48.3 km/h 89 % 0 mm 0 W/m2
06:23 12.6 °C 10.8 °C 995.5 hPa South 20.9 km/h 48.3 km/h 89 % 0 mm 0 W/m2
06:28 12.6 °C 10.8 °C 995.5 hPa SSW 17.7 km/h 33.8 km/h 89 % 0 mm 0 W/m2
06:33 12.6 °C 10.8 °C 995.8 hPa South 14.5 km/h 29 km/h 89 % 0 mm 0 W/m2
06:38 12.6 °C 10.8 °C 995.8 hPa SSW 16.1 km/h 35.4 km/h 89 % 0 mm 0 W/m2
06:43 12.5 °C 10.6 °C 995.8 hPa SSW 17.7 km/h 43.5 km/h 88 % 0 mm 0 W/m2
06:48 12.4 °C 10.4 °C 995.5 hPa SSW 17.7 km/h 43.5 km/h 88 % 0 mm 0 W/m2
06:53 12.4 °C 10.3 °C 995.5 hPa South 16.1 km/h 30.6 km/h 87 % 0 mm 0 W/m2
06:58 12.3 °C 10.2 °C 995.5 hPa South 16.1 km/h 32.2 km/h 87 % 0 mm 0 W/m2
07:03 12.2 °C 10.3 °C 995.1 hPa South 16.1 km/h 32.2 km/h 88 % 0 mm 0 W/m2
07:08 12.1 °C 10.2 °C 995.1 hPa South 14.5 km/h 25.7 km/h 88 % 0 mm 0 W/m2
07:13 12 °C 10.1 °C 995.1 hPa South 12.9 km/h 30.6 km/h 88 % 0 mm 0 W/m2
07:18 11.9 °C 10 °C 995.1 hPa South 12.9 km/h 32.2 km/h 88 % 0 mm 0 W/m2
07:23 11.9 °C 10 °C 995.1 hPa South 12.9 km/h 32.2 km/h 88 % 0 mm 0 W/m2
07:28 11.8 °C 9.9 °C 994.8 hPa South 12.9 km/h 35.4 km/h 88 % 0 mm 0 W/m2
07:33 11.8 °C 9.9 °C 995.1 hPa South 14.5 km/h 35.4 km/h 88 % 0 mm 0 W/m2
07:38 11.8 °C 9.9 °C 995.1 hPa South 12.9 km/h 25.7 km/h 88 % 0 mm 5 W/m2
07:43 11.8 °C 9.9 °C 994.8 hPa South 12.9 km/h 24.1 km/h 88 % 0 mm 5 W/m2
07:48 11.8 °C 9.7 °C 994.8 hPa South 14.5 km/h 24.1 km/h 87 % 0 mm 7 W/m2
07:53 11.8 °C 9.7 °C 994.8 hPa South 14.5 km/h 29 km/h 87 % 0 mm 9 W/m2
07:58 11.8 °C 9.7 °C 994.8 hPa South 12.9 km/h 29 km/h 87 % 0 mm 11 W/m2
08:03 11.8 °C 9.7 °C 994.8 hPa South 16.1 km/h 33.8 km/h 87 % 0 mm 12 W/m2
08:08 11.9 °C 9.8 °C 994.8 hPa South 17.7 km/h 33.8 km/h 87 % 0 mm 19 W/m2
08:13 12 °C 9.9 °C 994.8 hPa South 16.1 km/h 32.2 km/h 87 % 0 mm 25 W/m2
08:18 12 °C 9.9 °C 994.8 hPa South 16.1 km/h 32.2 km/h 87 % 0 mm 21 W/m2
08:23 12.1 °C 9.8 °C 994.8 hPa South 16.1 km/h 25.7 km/h 86 % 0 mm 28 W/m2
08:28 12.1 °C 9.8 °C 994.8 hPa South 17.7 km/h 38.6 km/h 86 % 0 mm 33 W/m2
08:33 12.1 °C 9.8 °C 994.8 hPa South 17.7 km/h 38.6 km/h 86 % 0 mm 58 W/m2
08:38 12.1 °C 9.7 °C 994.8 hPa South 19.3 km/h 48.3 km/h 85 % 0 mm 74 W/m2
08:43 12.2 °C 9.8 °C 994.5 hPa South 20.9 km/h 48.3 km/h 85 % 0 mm 109 W/m2
08:49 12.2 °C 9.8 °C 994.8 hPa South 19.3 km/h 35.4 km/h 85 % 0 mm 118 W/m2
08:53 12.3 °C 9.8 °C 994.5 hPa South 20.9 km/h 40.2 km/h 85 % 0 mm 137 W/m2
08:58 12.4 °C 9.8 °C 994.5 hPa South 20.9 km/h 40.2 km/h 84 % 0 mm 65 W/m2
09:03 12.4 °C 9.6 °C 994.5 hPa South 22.5 km/h 46.7 km/h 83 % 0 mm 69 W/m2
09:09 12.4 °C 9.6 °C 994.1 hPa South 20.9 km/h 46.7 km/h 83 % 0 mm 74 W/m2
09:14 12.4 °C 9.6 °C 994.1 hPa South 19.3 km/h 41.8 km/h 83 % 0 mm 47 W/m2
09:19 12.4 °C 9.6 °C 994.1 hPa South 20.9 km/h 43.5 km/h 83 % 0 mm 86 W/m2
09:24 12.4 °C 9.4 °C 994.1 hPa South 20.9 km/h 43.5 km/h 82 % 0 mm 72 W/m2
09:29 12.4 °C 9.4 °C 994.1 hPa South 20.9 km/h 35.4 km/h 82 % 0 mm 72 W/m2
09:34 12.6 °C 9.6 °C 994.1 hPa South 22.5 km/h 40.2 km/h 82 % 0 mm 206 W/m2
09:39 12.6 °C 9.6 °C 994.1 hPa SSW 22.5 km/h 40.2 km/h 82 % 0 mm 53 W/m2
09:44 12.6 °C 9.6 °C 994.1 hPa SSW 19.3 km/h 38.6 km/h 82 % 0 mm 258 W/m2
09:49 12.6 °C 9.6 °C 993.8 hPa South 24.1 km/h 49.9 km/h 82 % 0 mm 234 W/m2
09:54 12.7 °C 9.7 °C 993.8 hPa South 22.5 km/h 49.9 km/h 82 % 0 mm 267 W/m2
09:59 12.8 °C 9.6 °C 993.8 hPa South 20.9 km/h 43.5 km/h 81 % 0 mm 148 W/m2
10:04 12.7 °C 9.5 °C 993.8 hPa South 24.1 km/h 43.5 km/h 81 % 0 mm 109 W/m2
10:09 12.8 °C 9.6 °C 993.8 hPa SSW 24.1 km/h 43.5 km/h 81 % 0 mm 107 W/m2
10:14 12.8 °C 9.6 °C 993.8 hPa SSW 25.7 km/h 45.1 km/h 81 % 0 mm 97 W/m2
10:19 12.8 °C 9.6 °C 993.8 hPa SSW 22.5 km/h 45.1 km/h 81 % 0 mm 132 W/m2
10:24 12.8 °C 9.6 °C 993.8 hPa SSW 20.9 km/h 43.5 km/h 81 % 0 mm 244 W/m2
10:29 12.9 °C 9.6 °C 993.8 hPa South 24.1 km/h 43.5 km/h 80 % 0 mm 88 W/m2
10:34 12.9 °C 9.6 °C 993.8 hPa South 20.9 km/h 38.6 km/h 80 % 0 mm 123 W/m2
10:39 12.9 °C 9.6 °C 993.8 hPa South 20.9 km/h 38.6 km/h 80 % 0 mm 97 W/m2
10:44 12.9 °C 9.6 °C 993.8 hPa South 22.5 km/h 40.2 km/h 80 % 0 mm 125 W/m2
10:49 13 °C 9.4 °C 993.5 hPa South 20.9 km/h 40.2 km/h 79 % 0 mm 176 W/m2
10:54 13.1 °C 9.7 °C 993.5 hPa South 20.9 km/h 43.5 km/h 80 % 0 mm 105 W/m2
10:59 13.1 °C 9.7 °C 993.5 hPa South 19.3 km/h 43.5 km/h 80 % 0 mm 176 W/m2
11:04 13.1 °C 9.7 °C 993.8 hPa South 22.5 km/h 43.5 km/h 80 % 0 mm 232 W/m2
11:09 13.2 °C 9.8 °C 993.8 hPa SSW 24.1 km/h 43.5 km/h 80 % 0 mm 223 W/m2
11:14 13.3 °C 9.9 °C 993.5 hPa SSW 20.9 km/h 43.5 km/h 80 % 0 mm 227 W/m2
11:19 13.5 °C 10.1 °C 993.5 hPa South 20.9 km/h 43.5 km/h 80 % 0 mm 427 W/m2
11:24 13.6 °C 10.2 °C 993.5 hPa South 20.9 km/h 37 km/h 80 % 0 mm 520 W/m2
11:29 13.4 °C 9.8 °C 993.1 hPa South 24.1 km/h 45.1 km/h 79 % 0 mm 227 W/m2
11:34 13.5 °C 10.1 °C 993.5 hPa South 25.7 km/h 53.1 km/h 80 % 0 mm 200 W/m2
11:39 13.2 °C 9.8 °C 993.1 hPa SSW 25.7 km/h 53.1 km/h 80 % 0 mm 128 W/m2
11:44 13.2 °C 10 °C 993.1 hPa SSW 24.1 km/h 46.7 km/h 81 % 0 mm 221 W/m2
11:49 13.3 °C 10.1 °C 993.1 hPa SSW 17.7 km/h 38.6 km/h 81 % 0 mm 130 W/m2
11:54 13.3 °C 9.9 °C 993.1 hPa South 16.1 km/h 33.8 km/h 80 % 0 mm 221 W/m2
11:59 13.4 °C 10 °C 993.1 hPa South 16.1 km/h 33.8 km/h 80 % 0 mm 292 W/m2
12:04 13.6 °C 9.8 °C 993.1 hPa South 17.7 km/h 40.2 km/h 78 % 0 mm 149 W/m2
12:09 13.6 °C 9.8 °C 993.1 hPa South 22.5 km/h 43.5 km/h 78 % 0 mm 84 W/m2
12:14 13.3 °C 10.3 °C 993.1 hPa South 22.5 km/h 43.5 km/h 82 % 0 mm 216 W/m2
12:19 13 °C 10.2 °C 993.1 hPa South 19.3 km/h 38.6 km/h 83 % 0 mm 125 W/m2
12:24 12.8 °C 10.2 °C 993.1 hPa SSW 19.3 km/h 37 km/h 84 % 0 mm 158 W/m2
12:29 12.8 °C 10.3 °C 993.1 hPa SSW 17.7 km/h 35.4 km/h 85 % 0 mm 230 W/m2
12:34 12.8 °C 10.2 °C 993.1 hPa South 14.5 km/h 29 km/h 84 % 0 mm 178 W/m2
12:39 12.9 °C 10.1 °C 993.1 hPa South 17.7 km/h 33.8 km/h 83 % 0 mm 74 W/m2
12:44 12.9 °C 9.9 °C 993.1 hPa South 17.7 km/h 33.8 km/h 82 % 0 mm 79 W/m2
12:49 12.9 °C 9.9 °C 993.1 hPa South 17.7 km/h 35.4 km/h 82 % 0 mm 72 W/m2
12:54 12.9 °C 9.7 °C 993.1 hPa South 20.9 km/h 41.8 km/h 81 % 0 mm 134 W/m2
12:59 12.9 °C 9.9 °C 993.1 hPa South 22.5 km/h 41.8 km/h 82 % 0 mm 176 W/m2
13:04 12.9 °C 9.9 °C 993.1 hPa SSW 20.9 km/h 38.6 km/h 82 % 0 mm 169 W/m2
13:09 13.1 °C 9.9 °C 992.8 hPa SSW 22.5 km/h 41.8 km/h 81 % 0 mm 214 W/m2
13:14 13.2 °C 10 °C 992.8 hPa South 24.1 km/h 53.1 km/h 81 % 0 mm 146 W/m2
13:19 13.1 °C 10.1 °C 992.8 hPa South 24.1 km/h 53.1 km/h 82 % 0 mm 165 W/m2
13:24 12.9 °C 10.1 °C 992.8 hPa SSW 22.5 km/h 45.1 km/h 83 % 0 mm 149 W/m2
13:29 12.8 °C 10 °C 992.4 hPa South 20.9 km/h 46.7 km/h 83 % 0 mm 230 W/m2
13:34 12.8 °C 10.2 °C 992.4 hPa South 20.9 km/h 46.7 km/h 84 % 0 mm 211 W/m2
13:39 12.8 °C 9.8 °C 992.4 hPa South 22.5 km/h 45.1 km/h 82 % 0 mm 218 W/m2
13:40 12.8 °C 10 °C 992.4 hPa South 20.9 km/h 45.1 km/h 83 % 0 mm 206 W/m2
13:45 12.9 °C 9.9 °C 992.1 hPa South 24.1 km/h 45.1 km/h 82 % 0 mm 204 W/m2
13:50 13.1 °C 10.3 °C 992.1 hPa SSW 20.9 km/h 40.2 km/h 83 % 0 mm 276 W/m2
13:56 13 °C 10 °C 992.1 hPa South 22.5 km/h 41.8 km/h 82 % 0 mm 218 W/m2
14:01 13 °C 10 °C 992.1 hPa South 24.1 km/h 41.8 km/h 82 % 0 mm 107 W/m2
14:06 13 °C 9.8 °C 991.8 hPa South 22.5 km/h 45.1 km/h 81 % 0 mm 67 W/m2
14:11 13 °C 9.8 °C 991.8 hPa South 25.7 km/h 45.1 km/h 81 % 0 mm 69 W/m2
14:16 12.8 °C 9.8 °C 991.8 hPa South 29 km/h 61.2 km/h 82 % 0 mm 100 W/m2
14:21 12.7 °C 10.1 °C 991.8 hPa South 24.1 km/h 61.2 km/h 84 % 0 mm 102 W/m2
14:26 12.6 °C 9.9 °C 991.4 hPa South 17.7 km/h 33.8 km/h 84 % 0 mm 120 W/m2
14:31 12.5 °C 10.1 °C 991.4 hPa South 19.3 km/h 37 km/h 85 % 0 mm 128 W/m2
14:36 12.6 °C 9.9 °C 991.4 hPa South 24.1 km/h 46.7 km/h 84 % 0 mm 130 W/m2
14:41 12.6 °C 9.9 °C 991.4 hPa South 25.7 km/h 46.7 km/h 84 % 0 mm 151 W/m2
14:46 12.5 °C 9.9 °C 991.4 hPa South 25.7 km/h 45.1 km/h 84 % 0 mm 132 W/m2
14:51 12.6 °C 9.9 °C 991.1 hPa South 27.4 km/h 45.1 km/h 84 % 0 mm 142 W/m2
14:56 12.6 °C 9.9 °C 991.1 hPa South 27.4 km/h 49.9 km/h 84 % 0 mm 141 W/m2
15:01 12.6 °C 9.9 °C 991.1 hPa South 27.4 km/h 54.7 km/h 84 % 0 mm 104 W/m2
15:06 12.5 °C 9.9 °C 991.1 hPa South 25.7 km/h 54.7 km/h 84 % 0 mm 134 W/m2
15:11 12.5 °C 10.1 °C 991.1 hPa SSW 22.5 km/h 40.2 km/h 85 % 0 mm 128 W/m2
15:16 12.4 °C 9.9 °C 991.1 hPa South 20.9 km/h 45.1 km/h 85 % 0 mm 111 W/m2
15:21 12.4 °C 9.9 °C 990.7 hPa South 24.1 km/h 48.3 km/h 85 % 0 mm 125 W/m2
15:26 12.5 °C 10.1 °C 990.7 hPa South 22.5 km/h 48.3 km/h 85 % 0 mm 95 W/m2
15:34 12.4 °C 9.8 °C 990.7 hPa South 25.7 km/h 51.5 km/h 84 % 0 mm 44 W/m2
15:39 12.4 °C 9.9 °C 990.7 hPa South 24.1 km/h 51.5 km/h 85 % 0 mm 49 W/m2
15:44 12.4 °C 9.9 °C 990.4 hPa South 24.1 km/h 41.8 km/h 85 % 0 mm 51 W/m2
15:49 12.3 °C 9.8 °C 990.4 hPa South 25.7 km/h 41.8 km/h 85 % 0 mm 58 W/m2
15:54 12.2 °C 9.9 °C 990.4 hPa South 25.7 km/h 46.7 km/h 86 % 0 mm 63 W/m2
15:59 12.1 °C 10 °C 990.4 hPa South 25.7 km/h 48.3 km/h 87 % 0 mm 84 W/m2
16:04 12.1 °C 10.2 °C 990.4 hPa South 24.1 km/h 48.3 km/h 88 % 0 mm 60 W/m2
16:09 12 °C 10.1 °C 990.1 hPa South 22.5 km/h 48.3 km/h 88 % 0 mm 83 W/m2
16:14 11.9 °C 10 °C 990.1 hPa South 25.7 km/h 45.1 km/h 88 % 0 mm 69 W/m2
16:19 11.9 °C 10.2 °C 990.1 hPa South 30.6 km/h 49.9 km/h 89 % 0 mm 56 W/m2
16:24 11.9 °C 10.2 °C 990.1 hPa South 29 km/h 49.9 km/h 89 % 0 mm 63 W/m2
16:29 11.8 °C 10.1 °C 990.1 hPa SSW 27.4 km/h 49.9 km/h 89 % 0.25 mm 67 W/m2
16:34 11.8 °C 10.2 °C 989.7 hPa SSW 29 km/h 48.3 km/h 90 % 0.25 mm 44 W/m2
16:39 11.8 °C 10.2 °C 990.1 hPa SSW 29 km/h 54.7 km/h 90 % 0.25 mm 35 W/m2
16:44 11.8 °C 10.2 °C 989.7 hPa SSW 25.7 km/h 54.7 km/h 90 % 0.25 mm 23 W/m2
16:49 11.7 °C 10.1 °C 989.7 hPa SSW 25.7 km/h 57.9 km/h 90 % 0.51 mm 16 W/m2
16:54 11.6 °C 10.2 °C 990.1 hPa SSW 29 km/h 57.9 km/h 91 % 0.51 mm 16 W/m2
16:59 11.6 °C 10.2 °C 990.1 hPa SSW 29 km/h 51.5 km/h 91 % 0.51 mm 11 W/m2
17:04 11.6 °C 10.2 °C 989.7 hPa SSW 25.7 km/h 43.5 km/h 91 % 0.76 mm 11 W/m2
17:09 11.5 °C 10.2 °C 989.7 hPa SSW 25.7 km/h 41.8 km/h 92 % 0.76 mm 9 W/m2
17:14 11.5 °C 10.2 °C 989.7 hPa SSW 25.7 km/h 41.8 km/h 92 % 0.76 mm 9 W/m2
17:19 11.6 °C 10.3 °C 989.7 hPa SSW 27.4 km/h 45.1 km/h 92 % 1.02 mm 7 W/m2
17:24 11.6 °C 10.3 °C 990.1 hPa SSW 27.4 km/h 46.7 km/h 92 % 1.02 mm 7 W/m2
17:25 11.6 °C 10.3 °C 990.1 hPa SSW 27.4 km/h 46.7 km/h 92 % 1.27 mm 7 W/m2
17:30 11.6 °C 10.3 °C 990.1 hPa SSW 27.4 km/h 46.7 km/h 92 % 1.27 mm 7 W/m2
17:35 11.6 °C 10.3 °C 990.1 hPa SSW 27.4 km/h 43.5 km/h 92 % 1.27 mm 5 W/m2
17:40 11.6 °C 10.3 °C 990.1 hPa SSW 29 km/h 46.7 km/h 92 % 1.27 mm 5 W/m2
17:45 11.6 °C 10.3 °C 989.7 hPa SSW 27.4 km/h 48.3 km/h 92 % 1.27 mm 0 W/m2
17:50 11.6 °C 10.3 °C 989.7 hPa SSW 27.4 km/h 51.5 km/h 92 % 1.27 mm 0 W/m2
17:55 11.7 °C 10.4 °C 989.7 hPa SSW 27.4 km/h 51.5 km/h 92 % 1.02 mm 0 W/m2
18:00 11.7 °C 10.4 °C 989.7 hPa SSW 27.4 km/h 49.9 km/h 92 % 1.02 mm 0 W/m2
18:05 11.7 °C 10.4 °C 990.1 hPa SSW 27.4 km/h 49.9 km/h 92 % 1.02 mm 0 W/m2
18:10 11.7 °C 10.4 °C 990.1 hPa SSW 25.7 km/h 43.5 km/h 92 % 1.27 mm 0 W/m2
18:15 11.7 °C 10.4 °C 990.1 hPa SSW 24.1 km/h 43.5 km/h 92 % 1.02 mm 0 W/m2
18:20 11.8 °C 10.7 °C 990.1 hPa SW 19.3 km/h 40.2 km/h 93 % 1.27 mm 0 W/m2
18:25 11.8 °C 10.7 °C 990.1 hPa SW 20.9 km/h 40.2 km/h 93 % 1.02 mm 0 W/m2
18:30 11.8 °C 10.6 °C 990.4 hPa SW 20.9 km/h 37 km/h 92 % 1.02 mm 0 W/m2
18:35 11.9 °C 10.7 °C 990.4 hPa SW 22.5 km/h 38.6 km/h 92 % 1.27 mm 0 W/m2
18:40 12 °C 10.7 °C 990.4 hPa SW 24.1 km/h 38.6 km/h 92 % 1.52 mm 0 W/m2
18:46 12 °C 10.7 °C 990.4 hPa SW 22.5 km/h 37 km/h 92 % 1.52 mm 0 W/m2
18:51 12 °C 10.6 °C 990.7 hPa SW 22.5 km/h 48.3 km/h 91 % 1.52 mm 0 W/m2
18:56 12 °C 10.6 °C 990.7 hPa SW 24.1 km/h 48.3 km/h 91 % 1.52 mm 0 W/m2
19:01 12 °C 10.6 °C 991.1 hPa SW 22.5 km/h 38.6 km/h 91 % 1.78 mm 0 W/m2
19:06 11.9 °C 10.7 °C 991.1 hPa SW 22.5 km/h 43.5 km/h 92 % 1.52 mm 0 W/m2
19:11 12 °C 10.6 °C 991.1 hPa SW 27.4 km/h 51.5 km/h 91 % 1.52 mm 0 W/m2
19:12 12 °C 10.6 °C 991.1 hPa WSW 29 km/h 51.5 km/h 91 % 1.52 mm 0 W/m2
19:17 12 °C 10.4 °C 991.1 hPa WSW 32.2 km/h 53.1 km/h 90 % 1.78 mm 0 W/m2
19:22 12 °C 10.4 °C 991.4 hPa WSW 30.6 km/h 53.1 km/h 90 % 1.52 mm 0 W/m2
19:27 12 °C 10.4 °C 991.4 hPa WSW 30.6 km/h 62.8 km/h 90 % 1.52 mm 0 W/m2
19:32 11.9 °C 10.3 °C 991.4 hPa WSW 30.6 km/h 62.8 km/h 90 % 1.52 mm 0 W/m2
19:37 12 °C 10.4 °C 991.8 hPa WSW 30.6 km/h 51.5 km/h 90 % 1.52 mm 0 W/m2
19:42 11.9 °C 10.5 °C 991.8 hPa WSW 29 km/h 51.5 km/h 91 % 1.27 mm 0 W/m2
19:47 11.9 °C 10.5 °C 991.8 hPa WSW 27.4 km/h 51.5 km/h 91 % 1.02 mm 0 W/m2
19:52 11.9 °C 10.5 °C 992.1 hPa WSW 24.1 km/h 40.2 km/h 91 % 0.76 mm 0 W/m2
19:57 11.8 °C 10.6 °C 992.1 hPa West 22.5 km/h 40.2 km/h 92 % 0.51 mm 0 W/m2
20:02 11.8 °C 10.6 °C 992.1 hPa West 20.9 km/h 37 km/h 92 % 0.76 mm 0 W/m2
20:07 11.8 °C 10.6 °C 992.1 hPa WSW 22.5 km/h 45.1 km/h 92 % 0.51 mm 0 W/m2
20:12 11.8 °C 10.6 °C 992.4 hPa WSW 27.4 km/h 59.5 km/h 92 % 0.76 mm 0 W/m2
20:17 11.8 °C 10.4 °C 992.4 hPa WSW 30.6 km/h 59.5 km/h 91 % 0.51 mm 0 W/m2
20:22 11.8 °C 10.4 °C 992.4 hPa West 30.6 km/h 51.5 km/h 91 % 0.51 mm 0 W/m2
20:28 11.8 °C 10.4 °C 992.4 hPa West 29 km/h 53.1 km/h 91 % 0.51 mm 0 W/m2
20:33 11.8 °C 10.4 °C 992.8 hPa West 30.6 km/h 53.1 km/h 91 % 0.51 mm 0 W/m2
20:38 11.9 °C 10.5 °C 992.8 hPa West 32.2 km/h 51.5 km/h 91 % 0.51 mm 0 W/m2
20:43 11.9 °C 10.5 °C 993.1 hPa West 30.6 km/h 51.5 km/h 91 % 0.51 mm 0 W/m2
20:48 11.8 °C 10.4 °C 993.1 hPa West 27.4 km/h 51.5 km/h 91 % 0.51 mm 0 W/m2
20:49 11.8 °C 10.4 °C 993.1 hPa West 27.4 km/h 51.5 km/h 91 % 0.51 mm 0 W/m2
20:54 11.8 °C 10.4 °C 993.1 hPa West 27.4 km/h 49.9 km/h 91 % 0.51 mm 0 W/m2
20:59 11.8 °C 10.4 °C 993.5 hPa West 29 km/h 49.9 km/h 91 % 0.25 mm 0 W/m2
21:04 11.8 °C 10.4 °C 993.5 hPa West 25.7 km/h 48.3 km/h 91 % 0.25 mm 0 W/m2
21:09 11.7 °C 10.3 °C 993.5 hPa West 25.7 km/h 46.7 km/h 91 % 0 mm 0 W/m2
21:14 11.7 °C 10.3 °C 993.8 hPa West 27.4 km/h 46.7 km/h 91 % 0.25 mm 0 W/m2
21:19 11.7 °C 10.3 °C 993.8 hPa West 25.7 km/h 41.8 km/h 91 % 0.25 mm 0 W/m2
21:24 11.7 °C 10.3 °C 993.8 hPa West 22.5 km/h 38.6 km/h 91 % 0.25 mm 0 W/m2
21:29 11.7 °C 10.3 °C 993.8 hPa WSW 25.7 km/h 48.3 km/h 91 % 0.25 mm 0 W/m2
21:34 11.7 °C 10.3 °C 994.1 hPa West 24.1 km/h 48.3 km/h 91 % 0.25 mm 0 W/m2
21:39 11.6 °C 10.2 °C 994.1 hPa West 24.1 km/h 48.3 km/h 91 % 0.25 mm 0 W/m2
21:44 11.6 °C 10.2 °C 994.1 hPa West 24.1 km/h 48.3 km/h 91 % 0.25 mm 0 W/m2
21:49 11.6 °C 10.2 °C 994.5 hPa West 22.5 km/h 37 km/h 91 % 0.25 mm 0 W/m2
21:54 11.7 °C 10.3 °C 994.5 hPa West 24.1 km/h 49.9 km/h 91 % 0.25 mm 0 W/m2
21:59 11.6 °C 10.2 °C 994.5 hPa West 22.5 km/h 49.9 km/h 91 % 0.51 mm 0 W/m2
22:04 11.6 °C 10.2 °C 994.5 hPa West 20.9 km/h 38.6 km/h 91 % 0.51 mm 0 W/m2
22:09 11.6 °C 10.2 °C 994.8 hPa West 20.9 km/h 37 km/h 91 % 0.51 mm 0 W/m2
22:14 11.6 °C 10.2 °C 994.8 hPa West 19.3 km/h 41.8 km/h 91 % 0.25 mm 0 W/m2
22:19 11.6 °C 10 °C 994.8 hPa West 20.9 km/h 41.8 km/h 90 % 0.25 mm 0 W/m2
22:24 11.6 °C 10 °C 994.8 hPa West 20.9 km/h 37 km/h 90 % 0.25 mm 0 W/m2
22:29 11.5 °C 9.9 °C 995.1 hPa West 20.9 km/h 41.8 km/h 90 % 0.25 mm 0 W/m2
22:34 11.5 °C 9.9 °C 995.1 hPa West 24.1 km/h 41.8 km/h 90 % 0.25 mm 0 W/m2
22:39 11.6 °C 9.8 °C 995.1 hPa West 24.1 km/h 38.6 km/h 89 % 0.25 mm 0 W/m2
22:44 11.6 °C 9.8 °C 995.5 hPa West 22.5 km/h 38.6 km/h 89 % 0.25 mm 0 W/m2
22:46 11.6 °C 9.8 °C 995.5 hPa West 22.5 km/h 41.8 km/h 89 % 0.25 mm 0 W/m2
22:51 11.7 °C 9.9 °C 995.5 hPa West 22.5 km/h 41.8 km/h 89 % 0.25 mm 0 W/m2
22:56 11.7 °C 9.9 °C 995.5 hPa West 19.3 km/h 41.8 km/h 89 % 0 mm 0 W/m2
23:01 11.6 °C 9.8 °C 995.8 hPa West 16.1 km/h 29 km/h 89 % 0 mm 0 W/m2
23:02 11.6 °C 9.8 °C 995.8 hPa West 16.1 km/h 29 km/h 89 % 0 mm 0 W/m2
23:07 11.6 °C 9.8 °C 995.8 hPa West 19.3 km/h 33.8 km/h 89 % 0 mm 0 W/m2
23:12 11.7 °C 9.9 °C 996.2 hPa West 20.9 km/h 35.4 km/h 89 % 0 mm 0 W/m2
23:17 11.8 °C 10.1 °C 996.2 hPa West 20.9 km/h 35.4 km/h 89 % 0 mm 0 W/m2
23:22 11.7 °C 10.1 °C 996.2 hPa West 19.3 km/h 33.8 km/h 90 % 0 mm 0 W/m2
23:28 11.6 °C 10 °C 996.5 hPa West 17.7 km/h 38.6 km/h 90 % 0 mm 0 W/m2
23:33 11.4 °C 9.8 °C 996.5 hPa West 19.3 km/h 38.6 km/h 90 % 0 mm 0 W/m2
23:38 11.4 °C 9.8 °C 996.5 hPa West 20.9 km/h 35.4 km/h 90 % 0 mm 0 W/m2
23:43 11.3 °C 9.7 °C 996.8 hPa West 24.1 km/h 40.2 km/h 90 % 0 mm 0 W/m2
23:48 11.3 °C 9.6 °C 996.8 hPa West 29 km/h 48.3 km/h 89 % 0 mm 0 W/m2
23:53 11.2 °C 9.4 °C 997.2 hPa West 27.4 km/h 54.7 km/h 89 % 0 mm 0 W/m2
23:58 11.2 °C 9.3 °C 997.2 hPa West 25.7 km/h 54.7 km/h 88 % 0 mm 0 W/m2
Delerius-Weather
Compliments of Weather Underground - 2.25 mb

Data updates at regular intervals.